Details From GCLA - La Palma
To LPMA - Madeira
Flight Number -
Tags decoded
Created
Modified
Stats Distance 383 nm / 709 km
Max Altitude 0 ft / 0 m
Waypoints 7
Social Downloads 0
Likes 0
Share VATSIM

Download

Looking for another format? Having issues loading an existing format? Contact us
Advertisement - Login to hide

Notes

Requested: GCLA ABALO PELUS NIKAV IRSAN SNT LPMA

Route

GCLA ABALO PELUS NIKAV IRSAN SNT LPMA

ID Type Via Altitude Latitude Longitude Leg Dist Tot Dist Heading (true) Name
O GCLA APT - 0 ft / 0 m 28.62648˚ -17.75561˚ - 0 nm - La Palma
ABALO FIX - 0 ft / 0 m 32.33111˚ -18.13028˚ 223 nm 223 nm 355° / 355° -
PELUS FIX - 0 ft / 0 m 33.44528˚ -17.07111˚ 85 nm 308 nm 38° / 39° -
NIKAV FIX - 0 ft / 0 m 33.34861˚ -16.87361˚ 11 nm 320 nm 120° / 120° -
IRSAN FIX - 0 ft / 0 m 33.16667˚ -16.50444˚ 21 nm 341 nm 120° / 121° -
SNT VOR - 0 ft / 0 m 33.09028˚ -16.35056˚ 8 nm 350 nm 121° / 121° PORTO SANTO VOR-DME
O LPMA APT - 0 ft / 0 m 32.69770˚ -16.77445˚ 31 nm 382 nm 222° / 222° Madeira

Altitude Profile

Advertisement - Login to hide

Weather


0- 5 10 15 20 25 30 35+ Temperature / ° C

Clouds and Precipitation
Forecast for 2018-06-22 00:00 UTC. Updated 5 hours ago

Ground ~20,000 ft ~40,000 ft Winds

GCLA

Details ICAO GCLA (SPC)
Name La Palma
Region Canary Islands
Timezone Atlantic/Canary (UTC+1.0)
Stats Elevation 107 ft / 33 m (AMSL)
Location 28.626480° -17.755613°
Runways 1
Magnetic Variation 5.460° W

METAR

GCLA 220230Z AUTO 01006KT 330V030 9999 OVC023/// 20/15 Q1020

Decode

TAF

TAF GCLA 220200Z 2203/2303 34005KT 9999 BKN030 TX23/2215Z TN20/2205Z BECMG 2208/2210 04010KT

Decode

Departure Runways

ID Width Length Bearing (true) Bearing (mag) Surface Threshold Offset Overrun Length
01 148 ft / 45 m 7,240 ft / 2,207 m 359.02° 4.48° Asphalt 0 ft / 0 m 279 ft / 85 m
19 148 ft / 45 m 7,240 ft / 2,207 m 179.02° 184.48° Asphalt 0 ft / 0 m 236 ft / 72 m

LPMA

Details ICAO LPMA (FNC)
Name Madeira
Region Portugal
Timezone Atlantic/Madeira (UTC+1.0)
Stats Elevation 192 ft / 59 m (AMSL)
Location 32.697704° -16.774449°
Runways 1
Magnetic Variation 4.918° W

METAR

LPMA 220230Z 34006KT 260V060 9999 SCT014 19/13 Q1021

Decode

TAF

TAF LPMA 212300Z 2200/2224 36010KT 9999 SCT015 SCT030 BECMG 2208/2210 VRB05KT PROB30 TEMPO 2210/2216 20010KT

Decode

Destination Runways

ID Width Length Bearing (true) Bearing (mag) Surface Threshold Offset Overrun Length
05 141 ft / 43 m 8,683 ft / 2,647 m 42.98° 47.90° Asphalt 472 ft / 144 m 0 ft / 0 m
23 141 ft / 43 m 8,683 ft / 2,647 m 222.99° 227.91° Asphalt 466 ft / 142 m 0 ft / 0 m

Popular Alternatives